sensor_id;sensor_type;location;lat;lon;timestamp;P1;durP1;ratioP1;P2;durP2;ratioP2
45041;SDS011;30779;52.096;4.410;2022-12-26T00:00:41;42.80;;;22.05;;
45041;SDS011;30779;52.096;4.410;2022-12-26T00:03:42;30.10;;;16.40;;
45041;SDS011;30779;52.096;4.410;2022-12-26T00:06:43;35.35;;;18.95;;
45041;SDS011;30779;52.096;4.410;2022-12-26T00:09:44;32.85;;;16.67;;
45041;SDS011;30779;52.096;4.410;2022-12-26T00:12:45;33.20;;;16.35;;
45041;SDS011;30779;52.096;4.410;2022-12-26T00:15:46;35.60;;;17.55;;
45041;SDS011;30779;52.096;4.410;2022-12-26T00:18:48;29.55;;;16.30;;
45041;SDS011;30779;52.096;4.410;2022-12-26T00:21:49;28.58;;;14.65;;
45041;SDS011;30779;52.096;4.410;2022-12-26T00:24:50;28.35;;;15.77;;
45041;SDS011;30779;52.096;4.410;2022-12-26T00:27:51;26.70;;;14.73;;
45041;SDS011;30779;52.096;4.410;2022-12-26T00:30:52;31.00;;;15.05;;
45041;SDS011;30779;52.096;4.410;2022-12-26T00:33:53;30.40;;;16.60;;
45041;SDS011;30779;52.096;4.410;2022-12-26T00:36:54;35.00;;;18.40;;
45041;SDS011;30779;52.096;4.410;2022-12-26T00:39:55;34.65;;;18.27;;
45041;SDS011;30779;52.096;4.410;2022-12-26T00:42:56;37.47;;;19.20;;
45041;SDS011;30779;52.096;4.410;2022-12-26T00:45:57;40.50;;;20.85;;
45041;SDS011;30779;52.096;4.410;2022-12-26T00:48:58;35.25;;;19.98;;
45041;SDS011;30779;52.096;4.410;2022-12-26T00:52:05;38.33;;;20.10;;
45041;SDS011;30779;52.096;4.410;2022-12-26T00:55:06;38.67;;;20.52;;
45041;SDS011;30779;52.096;4.410;2022-12-26T00:58:07;44.60;;;18.80;;
45041;SDS011;30779;52.096;4.410;2022-12-26T01:01:12;32.88;;;18.92;;
45041;SDS011;30779;52.096;4.410;2022-12-26T01:04:14;38.88;;;19.27;;
45041;SDS011;30779;52.096;4.410;2022-12-26T01:07:15;34.90;;;17.92;;
45041;SDS011;30779;52.096;4.410;2022-12-26T01:10:16;38.17;;;19.48;;
45041;SDS011;30779;52.096;4.410;2022-12-26T01:13:17;33.92;;;17.63;;
45041;SDS011;30779;52.096;4.410;2022-12-26T01:16:18;33.58;;;17.25;;
45041;SDS011;30779;52.096;4.410;2022-12-26T01:19:19;29.52;;;16.80;;
45041;SDS011;30779;52.096;4.410;2022-12-26T01:22:20;29.55;;;16.85;;
45041;SDS011;30779;52.096;4.410;2022-12-26T01:25:22;39.95;;;19.23;;
45041;SDS011;30779;52.096;4.410;2022-12-26T01:28:23;30.88;;;15.93;;
45041;SDS011;30779;52.096;4.410;2022-12-26T01:31:24;34.72;;;16.85;;
45041;SDS011;30779;52.096;4.410;2022-12-26T01:34:25;32.03;;;16.85;;
45041;SDS011;30779;52.096;4.410;2022-12-26T01:37:26;37.33;;;17.23;;
45041;SDS011;30779;52.096;4.410;2022-12-26T01:40:27;30.27;;;16.70;;
45041;SDS011;30779;52.096;4.410;2022-12-26T01:43:44;35.97;;;18.02;;
45041;SDS011;30779;52.096;4.410;2022-12-26T01:46:46;33.38;;;17.52;;
45041;SDS011;30779;52.096;4.410;2022-12-26T01:49:51;35.53;;;16.00;;
45041;SDS011;30779;52.096;4.410;2022-12-26T01:52:53;29.70;;;15.27;;
45041;SDS011;30779;52.096;4.410;2022-12-26T01:56:06;28.13;;;15.88;;
45041;SDS011;30779;52.096;4.410;2022-12-26T01:59:18;28.92;;;14.63;;
45041;SDS011;30779;52.096;4.410;2022-12-26T02:02:21;27.73;;;15.63;;
45041;SDS011;30779;52.096;4.410;2022-12-26T02:05:24;29.55;;;15.18;;
45041;SDS011;30779;52.096;4.410;2022-12-26T02:08:35;30.35;;;16.17;;
45041;SDS011;30779;52.096;4.410;2022-12-26T02:12:19;27.90;;;14.55;;
45041;SDS011;30779;52.096;4.410;2022-12-26T02:15:00;26.17;;;15.38;;
45041;SDS011;30779;52.096;4.410;2022-12-26T02:18:02;20.40;;;13.07;;
45041;SDS011;30779;52.096;4.410;2022-12-26T02:40:37;21.08;;;12.02;;
45041;SDS011;30779;52.096;4.410;2022-12-26T02:47:07;20.70;;;12.50;;
45041;SDS011;30779;52.096;4.410;2022-12-26T02:56:49;19.40;;;12.07;;
45041;SDS011;30779;52.096;4.410;2022-12-26T03:00:16;21.92;;;11.85;;
45041;SDS011;30779;52.096;4.410;2022-12-26T03:03:37;22.55;;;12.15;;
45041;SDS011;30779;52.096;4.410;2022-12-26T03:06:59;20.50;;;10.70;;
45041;SDS011;30779;52.096;4.410;2022-12-26T03:10:22;21.33;;;11.55;;
45041;SDS011;30779;52.096;4.410;2022-12-26T03:13:42;20.63;;;12.45;;
45041;SDS011;30779;52.096;4.410;2022-12-26T03:16:45;20.70;;;12.40;;
45041;SDS011;30779;52.096;4.410;2022-12-26T03:20:10;18.77;;;11.45;;
45041;SDS011;30779;52.096;4.410;2022-12-26T03:23:12;19.85;;;12.13;;
45041;SDS011;30779;52.096;4.410;2022-12-26T03:26:16;17.90;;;10.77;;
45041;SDS011;30779;52.096;4.410;2022-12-26T03:29:37;17.75;;;10.73;;
45041;SDS011;30779;52.096;4.410;2022-12-26T03:32:57;18.83;;;11.18;;
45041;SDS011;30779;52.096;4.410;2022-12-26T03:35:58;15.35;;;9.38;;
45041;SDS011;30779;52.096;4.410;2022-12-26T03:42:08;12.88;;;8.93;;
45041;SDS011;30779;52.096;4.410;2022-12-26T03:49:00;13.25;;;8.82;;
45041;SDS011;30779;52.096;4.410;2022-12-26T03:52:31;12.00;;;8.45;;
45041;SDS011;30779;52.096;4.410;2022-12-26T03:56:09;12.48;;;8.27;;
45041;SDS011;30779;52.096;4.410;2022-12-26T03:59:41;13.38;;;8.27;;
45041;SDS011;30779;52.096;4.410;2022-12-26T04:03:06;11.57;;;7.97;;
45041;SDS011;30779;52.096;4.410;2022-12-26T04:06:29;14.48;;;6.43;;
45041;SDS011;30779;52.096;4.410;2022-12-26T04:10:06;9.73;;;6.32;;
45041;SDS011;30779;52.096;4.410;2022-12-26T04:13:36;10.57;;;6.57;;
45041;SDS011;30779;52.096;4.410;2022-12-26T04:17:02;9.23;;;5.95;;
45041;SDS011;30779;52.096;4.410;2022-12-26T04:23:43;10.20;;;6.55;;
45041;SDS011;30779;52.096;4.410;2022-12-26T04:27:04;9.80;;;5.18;;
45041;SDS011;30779;52.096;4.410;2022-12-26T04:30:24;10.82;;;5.57;;
45041;SDS011;30779;52.096;4.410;2022-12-26T04:33:46;7.10;;;4.68;;
45041;SDS011;30779;52.096;4.410;2022-12-26T04:37:09;6.33;;;4.40;;
45041;SDS011;30779;52.096;4.410;2022-12-26T04:40:33;5.57;;;4.00;;
45041;SDS011;30779;52.096;4.410;2022-12-26T04:43:56;10.93;;;5.32;;
45041;SDS011;30779;52.096;4.410;2022-12-26T04:47:05;14.15;;;5.35;;
45041;SDS011;30779;52.096;4.410;2022-12-26T04:50:07;7.75;;;4.00;;
45041;SDS011;30779;52.096;4.410;2022-12-26T04:53:10;7.38;;;3.85;;
45041;SDS011;30779;52.096;4.410;2022-12-26T04:56:12;5.60;;;3.40;;
45041;SDS011;30779;52.096;4.410;2022-12-26T04:59:13;4.55;;;3.30;;
45041;SDS011;30779;52.096;4.410;2022-12-26T05:02:15;6.13;;;3.67;;
45041;SDS011;30779;52.096;4.410;2022-12-26T05:05:41;5.18;;;3.63;;
45041;SDS011;30779;52.096;4.410;2022-12-26T05:09:03;6.88;;;3.45;;
45041;SDS011;30779;52.096;4.410;2022-12-26T05:12:23;5.05;;;3.03;;
45041;SDS011;30779;52.096;4.410;2022-12-26T05:15:24;6.10;;;2.85;;
45041;SDS011;30779;52.096;4.410;2022-12-26T05:18:25;6.78;;;3.08;;
45041;SDS011;30779;52.096;4.410;2022-12-26T05:21:45;7.90;;;3.15;;
45041;SDS011;30779;52.096;4.410;2022-12-26T05:25:09;9.20;;;3.33;;
45041;SDS011;30779;52.096;4.410;2022-12-26T05:28:31;6.95;;;2.65;;
45041;SDS011;30779;52.096;4.410;2022-12-26T05:31:41;5.95;;;2.85;;
45041;SDS011;30779;52.096;4.410;2022-12-26T05:34:42;3.72;;;2.50;;
45041;SDS011;30779;52.096;4.410;2022-12-26T05:37:43;4.65;;;2.60;;
45041;SDS011;30779;52.096;4.410;2022-12-26T05:40:44;9.95;;;2.65;;
45041;SDS011;30779;52.096;4.410;2022-12-26T05:43:45;5.13;;;2.40;;
45041;SDS011;30779;52.096;4.410;2022-12-26T05:46:46;4.32;;;2.50;;
45041;SDS011;30779;52.096;4.410;2022-12-26T05:49:47;7.43;;;3.53;;
45041;SDS011;30779;52.096;4.410;2022-12-26T05:52:48;4.88;;;2.42;;
45041;SDS011;30779;52.096;4.410;2022-12-26T05:55:49;6.07;;;2.80;;
45041;SDS011;30779;52.096;4.410;2022-12-26T05:58:54;4.47;;;3.05;;
45041;SDS011;30779;52.096;4.410;2022-12-26T06:01:55;5.93;;;3.35;;
45041;SDS011;30779;52.096;4.410;2022-12-26T06:04:56;3.88;;;2.78;;
45041;SDS011;30779;52.096;4.410;2022-12-26T06:07:57;5.80;;;3.17;;
45041;SDS011;30779;52.096;4.410;2022-12-26T06:11:17;4.55;;;2.92;;
45041;SDS011;30779;52.096;4.410;2022-12-26T06:14:18;5.18;;;2.97;;
45041;SDS011;30779;52.096;4.410;2022-12-26T06:17:19;4.65;;;3.58;;
45041;SDS011;30779;52.096;4.410;2022-12-26T06:20:20;7.18;;;4.03;;
45041;SDS011;30779;52.096;4.410;2022-12-26T06:23:21;6.95;;;3.80;;
45041;SDS011;30779;52.096;4.410;2022-12-26T06:26:22;5.65;;;3.15;;
45041;SDS011;30779;52.096;4.410;2022-12-26T06:29:23;5.63;;;3.78;;
45041;SDS011;30779;52.096;4.410;2022-12-26T06:32:24;5.88;;;3.75;;
45041;SDS011;30779;52.096;4.410;2022-12-26T06:35:25;8.10;;;3.60;;
45041;SDS011;30779;52.096;4.410;2022-12-26T06:38:26;6.32;;;3.65;;
45041;SDS011;30779;52.096;4.410;2022-12-26T06:41:27;4.72;;;3.17;;
45041;SDS011;30779;52.096;4.410;2022-12-26T06:44:28;6.95;;;3.78;;
45041;SDS011;30779;52.096;4.410;2022-12-26T06:47:29;4.72;;;3.03;;
45041;SDS011;30779;52.096;4.410;2022-12-26T06:53:34;4.22;;;2.65;;
45041;SDS011;30779;52.096;4.410;2022-12-26T06:56:35;5.32;;;3.03;;
45041;SDS011;30779;52.096;4.410;2022-12-26T06:59:36;4.13;;;2.85;;
45041;SDS011;30779;52.096;4.410;2022-12-26T07:02:37;7.00;;;2.53;;
45041;SDS011;30779;52.096;4.410;2022-12-26T07:05:38;8.32;;;4.30;;
45041;SDS011;30779;52.096;4.410;2022-12-26T07:08:39;7.05;;;3.03;;
45041;SDS011;30779;52.096;4.410;2022-12-26T07:11:42;6.70;;;2.95;;
45041;SDS011;30779;52.096;4.410;2022-12-26T07:17:44;6.60;;;2.50;;
45041;SDS011;30779;52.096;4.410;2022-12-26T07:20:48;6.38;;;3.42;;
45041;SDS011;30779;52.096;4.410;2022-12-26T07:23:49;5.82;;;2.72;;
45041;SDS011;30779;52.096;4.410;2022-12-26T07:26:50;11.43;;;3.10;;
45041;SDS011;30779;52.096;4.410;2022-12-26T07:29:51;6.10;;;2.70;;
45041;SDS011;30779;52.096;4.410;2022-12-26T07:32:52;5.38;;;3.47;;
45041;SDS011;30779;52.096;4.410;2022-12-26T07:35:57;5.70;;;3.30;;
45041;SDS011;30779;52.096;4.410;2022-12-26T07:38:58;8.52;;;2.50;;
45041;SDS011;30779;52.096;4.410;2022-12-26T07:42:00;5.60;;;2.55;;
45041;SDS011;30779;52.096;4.410;2022-12-26T07:45:01;9.63;;;3.03;;
45041;SDS011;30779;52.096;4.410;2022-12-26T07:48:02;4.90;;;2.60;;
45041;SDS011;30779;52.096;4.410;2022-12-26T07:51:03;7.55;;;2.40;;
45041;SDS011;30779;52.096;4.410;2022-12-26T07:54:04;8.50;;;2.60;;
45041;SDS011;30779;52.096;4.410;2022-12-26T07:57:05;7.57;;;2.33;;
45041;SDS011;30779;52.096;4.410;2022-12-26T08:00:09;5.60;;;2.60;;
45041;SDS011;30779;52.096;4.410;2022-12-26T08:03:10;4.35;;;2.38;;
45041;SDS011;30779;52.096;4.410;2022-12-26T08:06:12;7.00;;;2.10;;
45041;SDS011;30779;52.096;4.410;2022-12-26T08:09:13;5.93;;;1.92;;
45041;SDS011;30779;52.096;4.410;2022-12-26T08:12:15;7.13;;;2.10;;
45041;SDS011;30779;52.096;4.410;2022-12-26T08:15:16;8.15;;;1.98;;
45041;SDS011;30779;52.096;4.410;2022-12-26T08:18:17;8.80;;;1.65;;
45041;SDS011;30779;52.096;4.410;2022-12-26T08:21:18;7.68;;;2.20;;
45041;SDS011;30779;52.096;4.410;2022-12-26T08:27:22;6.50;;;1.70;;
45041;SDS011;30779;52.096;4.410;2022-12-26T08:30:23;4.95;;;2.10;;
45041;SDS011;30779;52.096;4.410;2022-12-26T08:33:24;6.47;;;2.20;;
45041;SDS011;30779;52.096;4.410;2022-12-26T08:36:25;7.05;;;1.60;;
45041;SDS011;30779;52.096;4.410;2022-12-26T08:39:26;7.20;;;2.10;;
45041;SDS011;30779;52.096;4.410;2022-12-26T08:42:27;4.20;;;1.80;;
45041;SDS011;30779;52.096;4.410;2022-12-26T08:45:28;34.88;;;5.40;;
45041;SDS011;30779;52.096;4.410;2022-12-26T08:48:30;8.55;;;3.15;;
45041;SDS011;30779;52.096;4.410;2022-12-26T08:51:31;15.63;;;2.80;;
45041;SDS011;30779;52.096;4.410;2022-12-26T08:54:32;8.85;;;2.85;;
45041;SDS011;30779;52.096;4.410;2022-12-26T08:57:33;8.30;;;2.15;;
45041;SDS011;30779;52.096;4.410;2022-12-26T09:00:34;11.75;;;2.83;;
45041;SDS011;30779;52.096;4.410;2022-12-26T09:03:35;11.25;;;2.47;;
45041;SDS011;30779;52.096;4.410;2022-12-26T09:06:37;9.13;;;2.38;;
45041;SDS011;30779;52.096;4.410;2022-12-26T09:09:38;8.88;;;2.30;;
45041;SDS011;30779;52.096;4.410;2022-12-26T09:12:39;10.57;;;2.58;;
45041;SDS011;30779;52.096;4.410;2022-12-26T09:15:40;6.72;;;1.98;;
45041;SDS011;30779;52.096;4.410;2022-12-26T09:18:42;8.27;;;1.63;;
45041;SDS011;30779;52.096;4.410;2022-12-26T09:21:43;8.32;;;2.75;;
45041;SDS011;30779;52.096;4.410;2022-12-26T09:24:44;7.65;;;1.98;;
45041;SDS011;30779;52.096;4.410;2022-12-26T09:27:46;9.35;;;2.30;;
45041;SDS011;30779;52.096;4.410;2022-12-26T09:30:47;10.05;;;2.13;;
45041;SDS011;30779;52.096;4.410;2022-12-26T09:33:48;8.15;;;1.95;;
45041;SDS011;30779;52.096;4.410;2022-12-26T09:36:49;5.15;;;1.65;;
45041;SDS011;30779;52.096;4.410;2022-12-26T09:39:50;7.30;;;2.28;;
45041;SDS011;30779;52.096;4.410;2022-12-26T09:46:28;5.20;;;1.98;;
45041;SDS011;30779;52.096;4.410;2022-12-26T09:58:49;8.88;;;1.90;;
45041;SDS011;30779;52.096;4.410;2022-12-26T10:01:52;6.80;;;2.45;;
45041;SDS011;30779;52.096;4.410;2022-12-26T10:04:54;7.22;;;2.30;;
45041;SDS011;30779;52.096;4.410;2022-12-26T10:11:11;13.57;;;3.20;;
45041;SDS011;30779;52.096;4.410;2022-12-26T10:14:26;6.30;;;2.20;;
45041;SDS011;30779;52.096;4.410;2022-12-26T10:23:33;6.38;;;1.92;;
45041;SDS011;30779;52.096;4.410;2022-12-26T10:26:38;6.45;;;2.08;;
45041;SDS011;30779;52.096;4.410;2022-12-26T10:32:48;5.80;;;2.20;;
45041;SDS011;30779;52.096;4.410;2022-12-26T10:35:50;8.15;;;1.70;;
45041;SDS011;30779;52.096;4.410;2022-12-26T10:38:52;5.88;;;2.17;;
45041;SDS011;30779;52.096;4.410;2022-12-26T10:41:56;2.72;;;1.58;;
45041;SDS011;30779;52.096;4.410;2022-12-26T10:44:58;7.65;;;2.22;;
45041;SDS011;30779;52.096;4.410;2022-12-26T10:48:02;7.90;;;2.38;;
45041;SDS011;30779;52.096;4.410;2022-12-26T10:51:06;8.00;;;2.10;;
45041;SDS011;30779;52.096;4.410;2022-12-26T10:54:12;5.93;;;1.83;;
45041;SDS011;30779;52.096;4.410;2022-12-26T10:57:15;5.82;;;1.65;;
45041;SDS011;30779;52.096;4.410;2022-12-26T11:00:20;6.65;;;1.50;;
45041;SDS011;30779;52.096;4.410;2022-12-26T11:03:22;6.22;;;1.50;;
45041;SDS011;30779;52.096;4.410;2022-12-26T11:06:24;6.35;;;1.85;;
45041;SDS011;30779;52.096;4.410;2022-12-26T11:09:39;6.70;;;1.60;;
45041;SDS011;30779;52.096;4.410;2022-12-26T11:12:44;7.32;;;1.63;;
45041;SDS011;30779;52.096;4.410;2022-12-26T11:15:50;5.80;;;1.48;;
45041;SDS011;30779;52.096;4.410;2022-12-26T11:18:52;3.42;;;1.55;;
45041;SDS011;30779;52.096;4.410;2022-12-26T11:21:53;2.58;;;1.50;;
45041;SDS011;30779;52.096;4.410;2022-12-26T11:28:18;6.75;;;1.83;;
45041;SDS011;30779;52.096;4.410;2022-12-26T11:31:21;6.47;;;1.48;;
45041;SDS011;30779;52.096;4.410;2022-12-26T11:37:38;4.18;;;1.67;;
45041;SDS011;30779;52.096;4.410;2022-12-26T11:40:45;6.50;;;2.28;;
45041;SDS011;30779;52.096;4.410;2022-12-26T11:47:15;5.05;;;1.20;;
45041;SDS011;30779;52.096;4.410;2022-12-26T11:50:25;4.85;;;1.70;;
45041;SDS011;30779;52.096;4.410;2022-12-26T11:53:26;2.35;;;0.88;;
45041;SDS011;30779;52.096;4.410;2022-12-26T11:56:30;7.13;;;1.77;;
45041;SDS011;30779;52.096;4.410;2022-12-26T11:59:31;3.58;;;1.20;;
45041;SDS011;30779;52.096;4.410;2022-12-26T12:02:32;5.55;;;1.60;;
45041;SDS011;30779;52.096;4.410;2022-12-26T12:21:19;4.93;;;1.13;;
45041;SDS011;30779;52.096;4.410;2022-12-26T12:30:41;4.20;;;1.65;;
45041;SDS011;30779;52.096;4.410;2022-12-26T12:33:52;6.07;;;1.30;;
45041;SDS011;30779;52.096;4.410;2022-12-26T12:37:16;5.00;;;1.13;;
45041;SDS011;30779;52.096;4.410;2022-12-26T12:40:26;4.78;;;1.35;;
45041;SDS011;30779;52.096;4.410;2022-12-26T12:59:30;7.05;;;1.27;;
45041;SDS011;30779;52.096;4.410;2022-12-26T13:08:51;5.38;;;1.27;;
45041;SDS011;30779;52.096;4.410;2022-12-26T13:11:56;4.00;;;1.00;;
45041;SDS011;30779;52.096;4.410;2022-12-26T13:18:01;6.97;;;1.58;;
45041;SDS011;30779;52.096;4.410;2022-12-26T13:21:07;3.15;;;1.08;;
45041;SDS011;30779;52.096;4.410;2022-12-26T13:24:15;7.47;;;1.27;;
45041;SDS011;30779;52.096;4.410;2022-12-26T13:27:25;7.45;;;1.20;;
45041;SDS011;30779;52.096;4.410;2022-12-26T13:30:27;5.70;;;2.08;;
45041;SDS011;30779;52.096;4.410;2022-12-26T13:33:28;4.10;;;1.08;;
45041;SDS011;30779;52.096;4.410;2022-12-26T13:36:39;5.15;;;1.77;;
45041;SDS011;30779;52.096;4.410;2022-12-26T13:39:41;1.95;;;1.10;;
45041;SDS011;30779;52.096;4.410;2022-12-26T13:49:35;5.82;;;1.50;;
45041;SDS011;30779;52.096;4.410;2022-12-26T13:52:38;5.72;;;1.38;;
45041;SDS011;30779;52.096;4.410;2022-12-26T13:55:41;6.18;;;1.30;;
45041;SDS011;30779;52.096;4.410;2022-12-26T13:59:03;6.05;;;1.40;;
45041;SDS011;30779;52.096;4.410;2022-12-26T14:02:15;4.95;;;2.03;;
45041;SDS011;30779;52.096;4.410;2022-12-26T14:08:24;8.52;;;1.20;;
45041;SDS011;30779;52.096;4.410;2022-12-26T14:11:54;5.90;;;1.42;;
45041;SDS011;30779;52.096;4.410;2022-12-26T14:30:48;5.53;;;1.30;;
45041;SDS011;30779;52.096;4.410;2022-12-26T14:33:53;6.35;;;1.35;;
45041;SDS011;30779;52.096;4.410;2022-12-26T14:36:58;10.48;;;1.38;;
45041;SDS011;30779;52.096;4.410;2022-12-26T14:40:36;5.78;;;1.40;;
45041;SDS011;30779;52.096;4.410;2022-12-26T14:43:33;5.20;;;1.98;;
45041;SDS011;30779;52.096;4.410;2022-12-26T14:49:38;11.55;;;1.63;;
45041;SDS011;30779;52.096;4.410;2022-12-26T14:52:43;8.32;;;1.30;;
45041;SDS011;30779;52.096;4.410;2022-12-26T14:58:49;8.25;;;1.45;;
45041;SDS011;30779;52.096;4.410;2022-12-26T15:01:58;6.97;;;1.83;;
45041;SDS011;30779;52.096;4.410;2022-12-26T15:18:41;5.75;;;1.85;;
45041;SDS011;30779;52.096;4.410;2022-12-26T15:34:51;5.78;;;1.42;;
45041;SDS011;30779;52.096;4.410;2022-12-26T15:38:13;6.75;;;1.98;;
45041;SDS011;30779;52.096;4.410;2022-12-26T15:44:20;10.32;;;2.40;;
45041;SDS011;30779;52.096;4.410;2022-12-26T15:47:32;5.68;;;1.63;;
45041;SDS011;30779;52.096;4.410;2022-12-26T16:00:07;5.82;;;1.40;;
45041;SDS011;30779;52.096;4.410;2022-12-26T16:06:41;4.15;;;1.50;;
45041;SDS011;30779;52.096;4.410;2022-12-26T16:09:45;6.88;;;1.63;;
45041;SDS011;30779;52.096;4.410;2022-12-26T16:12:56;6.97;;;1.52;;
45041;SDS011;30779;52.096;4.410;2022-12-26T16:15:58;5.55;;;1.40;;
45041;SDS011;30779;52.096;4.410;2022-12-26T16:22:32;9.60;;;2.25;;
45041;SDS011;30779;52.096;4.410;2022-12-26T16:25:46;5.40;;;1.83;;
45041;SDS011;30779;52.096;4.410;2022-12-26T16:28:47;7.32;;;1.33;;
45041;SDS011;30779;52.096;4.410;2022-12-26T16:31:48;5.13;;;1.30;;
45041;SDS011;30779;52.096;4.410;2022-12-26T16:34:49;8.20;;;2.47;;
45041;SDS011;30779;52.096;4.410;2022-12-26T16:37:51;8.88;;;1.45;;
45041;SDS011;30779;52.096;4.410;2022-12-26T16:40:52;4.68;;;1.63;;
45041;SDS011;30779;52.096;4.410;2022-12-26T16:43:56;4.25;;;1.80;;
45041;SDS011;30779;52.096;4.410;2022-12-26T16:47:01;4.43;;;1.83;;
45041;SDS011;30779;52.096;4.410;2022-12-26T16:50:06;4.18;;;2.65;;
45041;SDS011;30779;52.096;4.410;2022-12-26T16:53:11;5.00;;;1.73;;
45041;SDS011;30779;52.096;4.410;2022-12-26T16:56:23;4.75;;;1.50;;
45041;SDS011;30779;52.096;4.410;2022-12-26T16:59:33;7.95;;;1.80;;
45041;SDS011;30779;52.096;4.410;2022-12-26T17:02:36;4.95;;;1.63;;
45041;SDS011;30779;52.096;4.410;2022-12-26T17:05:37;5.45;;;1.63;;
45041;SDS011;30779;52.096;4.410;2022-12-26T17:08:44;6.47;;;2.35;;
45041;SDS011;30779;52.096;4.410;2022-12-26T17:14:53;3.78;;;1.30;;
45041;SDS011;30779;52.096;4.410;2022-12-26T17:17:55;3.70;;;1.00;;
45041;SDS011;30779;52.096;4.410;2022-12-26T17:21:13;8.52;;;1.38;;
45041;SDS011;30779;52.096;4.410;2022-12-26T17:24:22;4.68;;;1.55;;
45041;SDS011;30779;52.096;4.410;2022-12-26T17:27:24;2.95;;;1.05;;
45041;SDS011;30779;52.096;4.410;2022-12-26T17:30:27;2.95;;;1.02;;
45041;SDS011;30779;52.096;4.410;2022-12-26T17:33:28;3.97;;;1.80;;
45041;SDS011;30779;52.096;4.410;2022-12-26T17:36:32;3.13;;;1.30;;
45041;SDS011;30779;52.096;4.410;2022-12-26T17:39:33;5.75;;;1.83;;
45041;SDS011;30779;52.096;4.410;2022-12-26T17:42:46;8.45;;;2.20;;
45041;SDS011;30779;52.096;4.410;2022-12-26T17:45:47;4.65;;;1.52;;
45041;SDS011;30779;52.096;4.410;2022-12-26T17:48:48;3.08;;;1.35;;
45041;SDS011;30779;52.096;4.410;2022-12-26T17:51:49;3.78;;;1.50;;
45041;SDS011;30779;52.096;4.410;2022-12-26T17:54:50;2.92;;;1.20;;
45041;SDS011;30779;52.096;4.410;2022-12-26T17:57:52;4.45;;;1.58;;
45041;SDS011;30779;52.096;4.410;2022-12-26T18:00:53;7.20;;;1.50;;
45041;SDS011;30779;52.096;4.410;2022-12-26T18:03:54;5.22;;;1.40;;
45041;SDS011;30779;52.096;4.410;2022-12-26T18:06:56;4.15;;;1.33;;
45041;SDS011;30779;52.096;4.410;2022-12-26T18:09:58;7.18;;;1.88;;
45041;SDS011;30779;52.096;4.410;2022-12-26T18:12:59;8.73;;;1.95;;
45041;SDS011;30779;52.096;4.410;2022-12-26T18:16:00;8.60;;;1.27;;
45041;SDS011;30779;52.096;4.410;2022-12-26T18:19:01;4.07;;;1.30;;
45041;SDS011;30779;52.096;4.410;2022-12-26T18:22:02;4.45;;;1.15;;
45041;SDS011;30779;52.096;4.410;2022-12-26T18:25:04;4.20;;;1.40;;
45041;SDS011;30779;52.096;4.410;2022-12-26T18:28:05;3.08;;;1.02;;
45041;SDS011;30779;52.096;4.410;2022-12-26T18:31:06;3.17;;;1.50;;
45041;SDS011;30779;52.096;4.410;2022-12-26T18:34:07;5.85;;;1.73;;
45041;SDS011;30779;52.096;4.410;2022-12-26T18:37:08;5.15;;;1.27;;
45041;SDS011;30779;52.096;4.410;2022-12-26T18:43:24;6.22;;;1.20;;
45041;SDS011;30779;52.096;4.410;2022-12-26T18:46:25;7.30;;;1.85;;
45041;SDS011;30779;52.096;4.410;2022-12-26T18:49:28;3.88;;;1.38;;
45041;SDS011;30779;52.096;4.410;2022-12-26T18:52:29;2.97;;;1.45;;
45041;SDS011;30779;52.096;4.410;2022-12-26T18:55:30;6.38;;;1.58;;
45041;SDS011;30779;52.096;4.410;2022-12-26T18:58:31;8.27;;;1.27;;
45041;SDS011;30779;52.096;4.410;2022-12-26T19:01:32;5.43;;;1.55;;
45041;SDS011;30779;52.096;4.410;2022-12-26T19:04:33;6.78;;;1.40;;
45041;SDS011;30779;52.096;4.410;2022-12-26T19:07:34;4.03;;;1.40;;
45041;SDS011;30779;52.096;4.410;2022-12-26T19:10:35;5.43;;;1.77;;
45041;SDS011;30779;52.096;4.410;2022-12-26T19:13:36;5.28;;;1.33;;
45041;SDS011;30779;52.096;4.410;2022-12-26T19:16:37;8.57;;;2.05;;
45041;SDS011;30779;52.096;4.410;2022-12-26T19:19:38;4.93;;;1.85;;
45041;SDS011;30779;52.096;4.410;2022-12-26T19:22:39;5.60;;;2.33;;
45041;SDS011;30779;52.096;4.410;2022-12-26T19:25:40;7.43;;;1.90;;
45041;SDS011;30779;52.096;4.410;2022-12-26T19:28:41;18.77;;;2.63;;
45041;SDS011;30779;52.096;4.410;2022-12-26T19:31:42;6.15;;;1.70;;
45041;SDS011;30779;52.096;4.410;2022-12-26T19:34:43;6.72;;;1.60;;
45041;SDS011;30779;52.096;4.410;2022-12-26T19:37:44;5.47;;;1.63;;
45041;SDS011;30779;52.096;4.410;2022-12-26T19:40:45;5.90;;;1.90;;
45041;SDS011;30779;52.096;4.410;2022-12-26T19:43:46;4.63;;;1.60;;
45041;SDS011;30779;52.096;4.410;2022-12-26T19:46:47;5.22;;;1.73;;
45041;SDS011;30779;52.096;4.410;2022-12-26T19:49:48;8.13;;;1.77;;
45041;SDS011;30779;52.096;4.410;2022-12-26T19:52:49;8.50;;;2.17;;
45041;SDS011;30779;52.096;4.410;2022-12-26T19:55:50;6.88;;;2.08;;
45041;SDS011;30779;52.096;4.410;2022-12-26T19:58:52;9.63;;;1.98;;
45041;SDS011;30779;52.096;4.410;2022-12-26T20:01:53;6.28;;;1.60;;
45041;SDS011;30779;52.096;4.410;2022-12-26T20:04:54;6.45;;;1.90;;
45041;SDS011;30779;52.096;4.410;2022-12-26T20:07:55;3.42;;;2.13;;
45041;SDS011;30779;52.096;4.410;2022-12-26T20:10:56;5.88;;;1.80;;
45041;SDS011;30779;52.096;4.410;2022-12-26T20:14:03;7.28;;;2.40;;
45041;SDS011;30779;52.096;4.410;2022-12-26T20:17:05;5.65;;;1.70;;
45041;SDS011;30779;52.096;4.410;2022-12-26T20:20:07;6.80;;;2.30;;
45041;SDS011;30779;52.096;4.410;2022-12-26T20:23:08;5.82;;;1.80;;
45041;SDS011;30779;52.096;4.410;2022-12-26T20:26:14;8.15;;;2.38;;
45041;SDS011;30779;52.096;4.410;2022-12-26T20:29:15;5.25;;;1.48;;
45041;SDS011;30779;52.096;4.410;2022-12-26T20:32:17;7.38;;;2.50;;
45041;SDS011;30779;52.096;4.410;2022-12-26T20:35:18;7.30;;;1.60;;
45041;SDS011;30779;52.096;4.410;2022-12-26T20:38:18;3.65;;;1.90;;
45041;SDS011;30779;52.096;4.410;2022-12-26T20:41:19;5.32;;;1.55;;
45041;SDS011;30779;52.096;4.410;2022-12-26T20:44:21;8.60;;;2.53;;
45041;SDS011;30779;52.096;4.410;2022-12-26T20:47:23;9.38;;;1.90;;
45041;SDS011;30779;52.096;4.410;2022-12-26T20:50:24;5.43;;;1.70;;
45041;SDS011;30779;52.096;4.410;2022-12-26T20:53:25;8.65;;;1.58;;
45041;SDS011;30779;52.096;4.410;2022-12-26T20:56:26;7.72;;;2.08;;
45041;SDS011;30779;52.096;4.410;2022-12-26T20:59:27;7.55;;;1.80;;
45041;SDS011;30779;52.096;4.410;2022-12-26T21:02:28;4.47;;;1.63;;
45041;SDS011;30779;52.096;4.410;2022-12-26T21:05:29;7.70;;;2.25;;
45041;SDS011;30779;52.096;4.410;2022-12-26T21:08:30;10.30;;;2.33;;
45041;SDS011;30779;52.096;4.410;2022-12-26T21:11:33;10.25;;;2.00;;
45041;SDS011;30779;52.096;4.410;2022-12-26T21:14:35;6.93;;;1.77;;
45041;SDS011;30779;52.096;4.410;2022-12-26T21:17:36;9.40;;;2.50;;
45041;SDS011;30779;52.096;4.410;2022-12-26T21:20:37;11.95;;;2.88;;
45041;SDS011;30779;52.096;4.410;2022-12-26T21:23:38;5.95;;;1.98;;
45041;SDS011;30779;52.096;4.410;2022-12-26T21:26:39;4.88;;;1.58;;
45041;SDS011;30779;52.096;4.410;2022-12-26T21:29:41;8.18;;;1.83;;
45041;SDS011;30779;52.096;4.410;2022-12-26T21:32:42;3.70;;;1.58;;
45041;SDS011;30779;52.096;4.410;2022-12-26T21:35:43;8.35;;;1.63;;
45041;SDS011;30779;52.096;4.410;2022-12-26T21:38:45;6.40;;;1.85;;
45041;SDS011;30779;52.096;4.410;2022-12-26T21:41:47;6.47;;;2.17;;
45041;SDS011;30779;52.096;4.410;2022-12-26T21:44:48;5.72;;;1.80;;
45041;SDS011;30779;52.096;4.410;2022-12-26T21:47:49;8.02;;;1.73;;
45041;SDS011;30779;52.096;4.410;2022-12-26T21:50:50;7.95;;;1.80;;
45041;SDS011;30779;52.096;4.410;2022-12-26T21:53:51;4.70;;;1.42;;
45041;SDS011;30779;52.096;4.410;2022-12-26T21:57:12;6.53;;;1.98;;
45041;SDS011;30779;52.096;4.410;2022-12-26T22:00:14;6.70;;;1.52;;
45041;SDS011;30779;52.096;4.410;2022-12-26T22:03:15;9.80;;;1.70;;